sensor_id;sensor_type;location;lat;lon;timestamp;P1;durP1;ratioP1;P2;durP2;ratioP2
45676;SDS011;31390;51.186;6.830;2022-12-29T00:01:57;1.60;;;1.42;;
45676;SDS011;31390;51.186;6.830;2022-12-29T00:04:24;2.05;;;1.63;;
45676;SDS011;31390;51.186;6.830;2022-12-29T00:06:51;2.38;;;1.83;;
45676;SDS011;31390;51.186;6.830;2022-12-29T00:09:18;2.38;;;1.90;;
45676;SDS011;31390;51.186;6.830;2022-12-29T00:11:44;1.77;;;1.67;;
45676;SDS011;31390;51.186;6.830;2022-12-29T00:14:11;2.50;;;2.25;;
45676;SDS011;31390;51.186;6.830;2022-12-29T00:16:57;2.47;;;2.28;;
45676;SDS011;31390;51.186;6.830;2022-12-29T00:19:27;2.80;;;2.15;;
45676;SDS011;31390;51.186;6.830;2022-12-29T00:22:13;3.38;;;2.10;;
45676;SDS011;31390;51.186;6.830;2022-12-29T00:24:59;2.55;;;2.25;;
45676;SDS011;31390;51.186;6.830;2022-12-29T00:27:44;2.45;;;2.22;;
45676;SDS011;31390;51.186;6.830;2022-12-29T00:30:33;3.47;;;2.65;;
45676;SDS011;31390;51.186;6.830;2022-12-29T00:33:19;2.78;;;2.20;;
45676;SDS011;31390;51.186;6.830;2022-12-29T00:38:34;2.05;;;1.83;;
45676;SDS011;31390;51.186;6.830;2022-12-29T00:41:20;2.15;;;1.60;;
45676;SDS011;31390;51.186;6.830;2022-12-29T00:44:06;1.80;;;1.70;;
45676;SDS011;31390;51.186;6.830;2022-12-29T00:46:33;2.17;;;1.95;;
45676;SDS011;31390;51.186;6.830;2022-12-29T00:49:00;2.40;;;1.88;;
45676;SDS011;31390;51.186;6.830;2022-12-29T00:51:46;3.08;;;2.55;;
45676;SDS011;31390;51.186;6.830;2022-12-29T00:54:13;4.15;;;2.25;;
45676;SDS011;31390;51.186;6.830;2022-12-29T00:56:39;1.60;;;1.40;;
45676;SDS011;31390;51.186;6.830;2022-12-29T00:59:07;1.10;;;0.90;;
45676;SDS011;31390;51.186;6.830;2022-12-29T01:01:34;2.25;;;1.02;;
45676;SDS011;31390;51.186;6.830;2022-12-29T01:04:02;0.80;;;0.80;;
45676;SDS011;31390;51.186;6.830;2022-12-29T01:06:38;1.25;;;0.77;;
45676;SDS011;31390;51.186;6.830;2022-12-29T01:09:08;0.80;;;0.65;;
45676;SDS011;31390;51.186;6.830;2022-12-29T01:11:53;2.30;;;0.65;;
45676;SDS011;31390;51.186;6.830;2022-12-29T01:14:20;0.57;;;0.47;;
45676;SDS011;31390;51.186;6.830;2022-12-29T01:16:47;0.82;;;0.60;;
45676;SDS011;31390;51.186;6.830;2022-12-29T01:19:16;0.50;;;0.50;;
45676;SDS011;31390;51.186;6.830;2022-12-29T01:21:47;0.95;;;0.60;;
45676;SDS011;31390;51.186;6.830;2022-12-29T01:24:14;1.13;;;0.50;;
45676;SDS011;31390;51.186;6.830;2022-12-29T01:26:42;0.60;;;0.50;;
45676;SDS011;31390;51.186;6.830;2022-12-29T01:29:12;0.30;;;0.30;;
45676;SDS011;31390;51.186;6.830;2022-12-29T01:31:39;1.02;;;0.40;;
45676;SDS011;31390;51.186;6.830;2022-12-29T01:34:07;0.65;;;0.50;;
45676;SDS011;31390;51.186;6.830;2022-12-29T01:36:37;1.08;;;0.43;;
45676;SDS011;31390;51.186;6.830;2022-12-29T01:39:03;0.60;;;0.50;;
45676;SDS011;31390;51.186;6.830;2022-12-29T01:41:30;1.65;;;0.40;;
45676;SDS011;31390;51.186;6.830;2022-12-29T01:46:49;0.70;;;0.40;;
45676;SDS011;31390;51.186;6.830;2022-12-29T01:49:21;0.65;;;0.50;;
45676;SDS011;31390;51.186;6.830;2022-12-29T01:51:57;1.15;;;0.60;;
45676;SDS011;31390;51.186;6.830;2022-12-29T01:54:26;1.30;;;0.73;;
45676;SDS011;31390;51.186;6.830;2022-12-29T01:56:55;3.88;;;0.68;;
45676;SDS011;31390;51.186;6.830;2022-12-29T01:59:33;0.50;;;0.40;;
45676;SDS011;31390;51.186;6.830;2022-12-29T02:02:01;0.50;;;0.47;;
45676;SDS011;31390;51.186;6.830;2022-12-29T02:04:31;0.82;;;0.40;;
45676;SDS011;31390;51.186;6.830;2022-12-29T02:07:00;1.48;;;0.75;;
45676;SDS011;31390;51.186;6.830;2022-12-29T02:09:27;1.30;;;0.50;;
45676;SDS011;31390;51.186;6.830;2022-12-29T02:11:54;1.58;;;0.82;;
45676;SDS011;31390;51.186;6.830;2022-12-29T02:14:30;1.20;;;0.50;;
45676;SDS011;31390;51.186;6.830;2022-12-29T02:22:30;3.05;;;0.95;;
45676;SDS011;31390;51.186;6.830;2022-12-29T02:32:56;0.80;;;0.73;;
45676;SDS011;31390;51.186;6.830;2022-12-29T02:40:58;2.97;;;1.20;;
45676;SDS011;31390;51.186;6.830;2022-12-29T02:43:45;1.40;;;0.73;;
45676;SDS011;31390;51.186;6.830;2022-12-29T02:51:33;2.72;;;0.90;;
45676;SDS011;31390;51.186;6.830;2022-12-29T02:54:02;1.27;;;0.82;;
45676;SDS011;31390;51.186;6.830;2022-12-29T02:56:50;1.35;;;0.80;;
45676;SDS011;31390;51.186;6.830;2022-12-29T02:59:19;1.55;;;0.90;;
45676;SDS011;31390;51.186;6.830;2022-12-29T03:12:58;2.05;;;0.77;;
45676;SDS011;31390;51.186;6.830;2022-12-29T03:15:53;2.70;;;0.68;;
45676;SDS011;31390;51.186;6.830;2022-12-29T03:21:25;1.40;;;0.80;;
45676;SDS011;31390;51.186;6.830;2022-12-29T03:24:17;1.10;;;0.52;;
45676;SDS011;31390;51.186;6.830;2022-12-29T03:26:45;1.17;;;0.60;;
45676;SDS011;31390;51.186;6.830;2022-12-29T03:29:12;2.50;;;0.70;;
45676;SDS011;31390;51.186;6.830;2022-12-29T03:31:41;2.05;;;0.80;;
45676;SDS011;31390;51.186;6.830;2022-12-29T03:34:11;1.35;;;0.70;;
45676;SDS011;31390;51.186;6.830;2022-12-29T03:36:42;1.98;;;0.70;;
45676;SDS011;31390;51.186;6.830;2022-12-29T03:39:12;1.73;;;0.80;;
45676;SDS011;31390;51.186;6.830;2022-12-29T03:41:40;1.23;;;0.63;;
45676;SDS011;31390;51.186;6.830;2022-12-29T03:44:13;1.38;;;0.60;;
45676;SDS011;31390;51.186;6.830;2022-12-29T03:46:42;1.05;;;0.50;;
45676;SDS011;31390;51.186;6.830;2022-12-29T03:49:10;0.98;;;0.60;;
45676;SDS011;31390;51.186;6.830;2022-12-29T03:51:38;0.65;;;0.40;;
45676;SDS011;31390;51.186;6.830;2022-12-29T03:54:05;1.63;;;0.50;;
45676;SDS011;31390;51.186;6.830;2022-12-29T03:56:34;2.60;;;0.68;;
45676;SDS011;31390;51.186;6.830;2022-12-29T03:59:01;1.15;;;0.50;;
45676;SDS011;31390;51.186;6.830;2022-12-29T04:01:33;2.20;;;0.50;;
45676;SDS011;31390;51.186;6.830;2022-12-29T04:04:01;0.85;;;0.50;;
45676;SDS011;31390;51.186;6.830;2022-12-29T04:06:27;1.60;;;0.40;;
45676;SDS011;31390;51.186;6.830;2022-12-29T04:09:00;2.78;;;0.60;;
45676;SDS011;31390;51.186;6.830;2022-12-29T04:11:31;1.02;;;0.50;;
45676;SDS011;31390;51.186;6.830;2022-12-29T04:14:01;1.40;;;0.60;;
45676;SDS011;31390;51.186;6.830;2022-12-29T04:16:32;0.70;;;0.40;;
45676;SDS011;31390;51.186;6.830;2022-12-29T04:19:05;1.63;;;0.60;;
45676;SDS011;31390;51.186;6.830;2022-12-29T04:21:36;2.00;;;0.60;;
45676;SDS011;31390;51.186;6.830;2022-12-29T04:24:05;1.58;;;0.68;;
45676;SDS011;31390;51.186;6.830;2022-12-29T04:26:37;0.40;;;0.38;;
45676;SDS011;31390;51.186;6.830;2022-12-29T04:29:22;2.30;;;0.50;;
45676;SDS011;31390;51.186;6.830;2022-12-29T04:32:03;1.27;;;0.60;;
45676;SDS011;31390;51.186;6.830;2022-12-29T04:34:32;0.93;;;0.60;;
45676;SDS011;31390;51.186;6.830;2022-12-29T04:36:59;1.60;;;0.60;;
45676;SDS011;31390;51.186;6.830;2022-12-29T04:39:27;1.45;;;0.90;;
45676;SDS011;31390;51.186;6.830;2022-12-29T04:41:53;1.33;;;0.57;;
45676;SDS011;31390;51.186;6.830;2022-12-29T04:44:20;1.38;;;0.80;;
45676;SDS011;31390;51.186;6.830;2022-12-29T04:46:56;1.02;;;0.70;;
45676;SDS011;31390;51.186;6.830;2022-12-29T04:49:42;1.77;;;1.00;;
45676;SDS011;31390;51.186;6.830;2022-12-29T04:52:29;1.40;;;0.52;;
45676;SDS011;31390;51.186;6.830;2022-12-29T04:55:02;1.15;;;0.77;;
45676;SDS011;31390;51.186;6.830;2022-12-29T04:57:29;1.00;;;0.82;;
45676;SDS011;31390;51.186;6.830;2022-12-29T04:59:57;2.08;;;0.80;;
45676;SDS011;31390;51.186;6.830;2022-12-29T05:02:26;2.60;;;0.95;;
45676;SDS011;31390;51.186;6.830;2022-12-29T05:04:55;1.73;;;1.00;;
45676;SDS011;31390;51.186;6.830;2022-12-29T05:07:21;1.27;;;0.70;;
45676;SDS011;31390;51.186;6.830;2022-12-29T05:09:48;2.30;;;0.80;;
45676;SDS011;31390;51.186;6.830;2022-12-29T05:12:14;1.73;;;1.02;;
45676;SDS011;31390;51.186;6.830;2022-12-29T05:15:00;2.28;;;0.98;;
45676;SDS011;31390;51.186;6.830;2022-12-29T05:17:29;1.88;;;0.82;;
45676;SDS011;31390;51.186;6.830;2022-12-29T05:19:56;2.05;;;0.70;;
45676;SDS011;31390;51.186;6.830;2022-12-29T05:22:29;2.10;;;0.70;;
45676;SDS011;31390;51.186;6.830;2022-12-29T05:24:58;2.17;;;0.73;;
45676;SDS011;31390;51.186;6.830;2022-12-29T05:27:25;1.75;;;0.82;;
45676;SDS011;31390;51.186;6.830;2022-12-29T05:30:18;3.13;;;0.82;;
45676;SDS011;31390;51.186;6.830;2022-12-29T05:32:44;2.30;;;0.80;;
45676;SDS011;31390;51.186;6.830;2022-12-29T05:35:13;1.60;;;0.80;;
45676;SDS011;31390;51.186;6.830;2022-12-29T05:37:43;3.10;;;0.90;;
45676;SDS011;31390;51.186;6.830;2022-12-29T05:40:13;1.60;;;0.82;;
45676;SDS011;31390;51.186;6.830;2022-12-29T05:42:40;1.60;;;0.80;;
45676;SDS011;31390;51.186;6.830;2022-12-29T05:45:36;1.70;;;0.80;;
45676;SDS011;31390;51.186;6.830;2022-12-29T05:48:27;2.15;;;0.93;;
45676;SDS011;31390;51.186;6.830;2022-12-29T05:51:21;1.70;;;0.77;;
45676;SDS011;31390;51.186;6.830;2022-12-29T05:53:50;1.58;;;1.00;;
45676;SDS011;31390;51.186;6.830;2022-12-29T05:56:17;1.00;;;0.60;;
45676;SDS011;31390;51.186;6.830;2022-12-29T05:58:52;1.10;;;0.70;;
45676;SDS011;31390;51.186;6.830;2022-12-29T06:01:20;2.20;;;1.00;;
45676;SDS011;31390;51.186;6.830;2022-12-29T06:03:47;2.13;;;0.60;;
45676;SDS011;31390;51.186;6.830;2022-12-29T06:06:19;1.83;;;0.93;;
45676;SDS011;31390;51.186;6.830;2022-12-29T06:08:45;1.30;;;0.90;;
45676;SDS011;31390;51.186;6.830;2022-12-29T06:11:13;1.75;;;1.10;;
45676;SDS011;31390;51.186;6.830;2022-12-29T06:13:45;2.60;;;0.90;;
45676;SDS011;31390;51.186;6.830;2022-12-29T06:16:12;2.72;;;0.90;;
45676;SDS011;31390;51.186;6.830;2022-12-29T06:18:44;0.77;;;0.60;;
45676;SDS011;31390;51.186;6.830;2022-12-29T06:21:14;2.53;;;1.00;;
45676;SDS011;31390;51.186;6.830;2022-12-29T06:23:42;2.10;;;0.90;;
45676;SDS011;31390;51.186;6.830;2022-12-29T06:26:09;1.50;;;0.90;;
45676;SDS011;31390;51.186;6.830;2022-12-29T06:28:36;3.13;;;1.17;;
45676;SDS011;31390;51.186;6.830;2022-12-29T06:31:09;1.52;;;0.90;;
45676;SDS011;31390;51.186;6.830;2022-12-29T06:33:36;1.67;;;0.93;;
45676;SDS011;31390;51.186;6.830;2022-12-29T06:36:05;2.17;;;0.80;;
45676;SDS011;31390;51.186;6.830;2022-12-29T06:38:32;2.00;;;0.82;;
45676;SDS011;31390;51.186;6.830;2022-12-29T06:40:59;1.35;;;0.70;;
45676;SDS011;31390;51.186;6.830;2022-12-29T06:43:45;1.58;;;0.70;;
45676;SDS011;31390;51.186;6.830;2022-12-29T06:46:30;2.03;;;1.08;;
45676;SDS011;31390;51.186;6.830;2022-12-29T06:48:57;4.20;;;0.95;;
45676;SDS011;31390;51.186;6.830;2022-12-29T06:51:23;1.20;;;0.80;;
45676;SDS011;31390;51.186;6.830;2022-12-29T06:53:50;2.63;;;1.10;;
45676;SDS011;31390;51.186;6.830;2022-12-29T06:56:16;1.70;;;0.70;;
45676;SDS011;31390;51.186;6.830;2022-12-29T06:58:43;2.60;;;0.77;;
45676;SDS011;31390;51.186;6.830;2022-12-29T07:01:09;1.70;;;0.80;;
45676;SDS011;31390;51.186;6.830;2022-12-29T07:03:36;3.67;;;0.98;;
45676;SDS011;31390;51.186;6.830;2022-12-29T07:06:03;1.63;;;1.10;;
45676;SDS011;31390;51.186;6.830;2022-12-29T07:08:30;3.40;;;1.17;;
45676;SDS011;31390;51.186;6.830;2022-12-29T07:10:56;3.30;;;1.02;;
45676;SDS011;31390;51.186;6.830;2022-12-29T07:13:23;1.73;;;0.77;;
45676;SDS011;31390;51.186;6.830;2022-12-29T07:15:49;2.67;;;1.13;;
45676;SDS011;31390;51.186;6.830;2022-12-29T07:18:17;2.97;;;1.05;;
45676;SDS011;31390;51.186;6.830;2022-12-29T07:20:45;2.13;;;0.80;;
45676;SDS011;31390;51.186;6.830;2022-12-29T07:23:12;2.13;;;0.90;;
45676;SDS011;31390;51.186;6.830;2022-12-29T07:25:38;2.05;;;0.90;;
45676;SDS011;31390;51.186;6.830;2022-12-29T07:28:07;4.55;;;1.20;;
45676;SDS011;31390;51.186;6.830;2022-12-29T07:30:36;2.35;;;1.15;;
45676;SDS011;31390;51.186;6.830;2022-12-29T07:33:02;3.88;;;1.08;;
45676;SDS011;31390;51.186;6.830;2022-12-29T07:35:29;4.78;;;1.00;;
45676;SDS011;31390;51.186;6.830;2022-12-29T07:37:59;3.65;;;0.77;;
45676;SDS011;31390;51.186;6.830;2022-12-29T07:40:26;4.82;;;1.33;;
45676;SDS011;31390;51.186;6.830;2022-12-29T07:42:52;2.20;;;0.98;;
45676;SDS011;31390;51.186;6.830;2022-12-29T07:45:28;3.13;;;1.15;;
45676;SDS011;31390;51.186;6.830;2022-12-29T07:48:09;6.25;;;1.42;;
45676;SDS011;31390;51.186;6.830;2022-12-29T07:50:54;2.58;;;1.63;;
45676;SDS011;31390;51.186;6.830;2022-12-29T07:53:20;2.58;;;1.00;;
45676;SDS011;31390;51.186;6.830;2022-12-29T07:55:47;3.20;;;1.10;;
45676;SDS011;31390;51.186;6.830;2022-12-29T07:58:13;6.53;;;1.35;;
45676;SDS011;31390;51.186;6.830;2022-12-29T08:00:41;2.90;;;0.88;;
45676;SDS011;31390;51.186;6.830;2022-12-29T08:03:07;4.43;;;1.15;;
45676;SDS011;31390;51.186;6.830;2022-12-29T08:05:33;4.13;;;1.23;;
45676;SDS011;31390;51.186;6.830;2022-12-29T08:08:00;5.07;;;1.30;;
45676;SDS011;31390;51.186;6.830;2022-12-29T08:10:27;2.60;;;1.23;;
45676;SDS011;31390;51.186;6.830;2022-12-29T08:12:53;2.80;;;1.10;;
45676;SDS011;31390;51.186;6.830;2022-12-29T08:15:20;2.53;;;1.13;;
45676;SDS011;31390;51.186;6.830;2022-12-29T08:17:52;4.50;;;1.25;;
45676;SDS011;31390;51.186;6.830;2022-12-29T08:20:18;4.95;;;1.38;;
45676;SDS011;31390;51.186;6.830;2022-12-29T08:22:45;6.47;;;1.45;;
45676;SDS011;31390;51.186;6.830;2022-12-29T08:25:11;2.67;;;1.17;;
45676;SDS011;31390;51.186;6.830;2022-12-29T08:27:38;5.07;;;1.45;;
45676;SDS011;31390;51.186;6.830;2022-12-29T08:30:05;5.43;;;1.02;;
45676;SDS011;31390;51.186;6.830;2022-12-29T08:32:34;2.72;;;1.20;;
45676;SDS011;31390;51.186;6.830;2022-12-29T08:35:00;7.78;;;1.20;;
45676;SDS011;31390;51.186;6.830;2022-12-29T08:37:27;4.28;;;1.40;;
45676;SDS011;31390;51.186;6.830;2022-12-29T08:39:59;2.08;;;1.10;;
45676;SDS011;31390;51.186;6.830;2022-12-29T08:42:31;5.13;;;1.38;;
45676;SDS011;31390;51.186;6.830;2022-12-29T08:45:07;6.30;;;1.30;;
45676;SDS011;31390;51.186;6.830;2022-12-29T08:47:34;6.07;;;1.50;;
45676;SDS011;31390;51.186;6.830;2022-12-29T08:50:03;4.57;;;1.45;;
45676;SDS011;31390;51.186;6.830;2022-12-29T08:52:33;6.72;;;1.38;;
45676;SDS011;31390;51.186;6.830;2022-12-29T08:54:59;7.13;;;1.85;;
45676;SDS011;31390;51.186;6.830;2022-12-29T08:57:29;4.30;;;1.83;;
45676;SDS011;31390;51.186;6.830;2022-12-29T09:00:21;6.00;;;2.03;;
45676;SDS011;31390;51.186;6.830;2022-12-29T09:02:49;7.72;;;1.75;;
45676;SDS011;31390;51.186;6.830;2022-12-29T09:05:17;6.63;;;1.80;;
45676;SDS011;31390;51.186;6.830;2022-12-29T09:07:53;7.28;;;2.20;;
45676;SDS011;31390;51.186;6.830;2022-12-29T09:10:20;11.65;;;2.20;;
45676;SDS011;31390;51.186;6.830;2022-12-29T09:12:47;6.68;;;1.90;;
45676;SDS011;31390;51.186;6.830;2022-12-29T09:15:19;6.40;;;2.10;;
45676;SDS011;31390;51.186;6.830;2022-12-29T09:17:47;6.60;;;1.63;;
45676;SDS011;31390;51.186;6.830;2022-12-29T09:20:17;5.75;;;1.73;;
45676;SDS011;31390;51.186;6.830;2022-12-29T09:22:44;5.78;;;1.92;;
45676;SDS011;31390;51.186;6.830;2022-12-29T09:25:14;8.13;;;1.60;;
45676;SDS011;31390;51.186;6.830;2022-12-29T09:27:40;5.30;;;1.67;;
45676;SDS011;31390;51.186;6.830;2022-12-29T09:30:08;5.15;;;1.73;;
45676;SDS011;31390;51.186;6.830;2022-12-29T09:32:38;4.32;;;1.40;;
45676;SDS011;31390;51.186;6.830;2022-12-29T09:35:11;3.53;;;1.17;;
45676;SDS011;31390;51.186;6.830;2022-12-29T09:37:38;4.95;;;1.48;;
45676;SDS011;31390;51.186;6.830;2022-12-29T09:40:14;6.57;;;1.50;;
45676;SDS011;31390;51.186;6.830;2022-12-29T09:46:04;6.65;;;1.88;;
45676;SDS011;31390;51.186;6.830;2022-12-29T09:48:27;4.40;;;1.60;;
45676;SDS011;31390;51.186;6.830;2022-12-29T09:50:56;8.63;;;1.67;;
45676;SDS011;31390;51.186;6.830;2022-12-29T09:53:27;6.18;;;1.80;;
45676;SDS011;31390;51.186;6.830;2022-12-29T09:55:57;7.13;;;2.33;;
45676;SDS011;31390;51.186;6.830;2022-12-29T09:58:47;5.80;;;1.60;;
45676;SDS011;31390;51.186;6.830;2022-12-29T10:01:23;6.00;;;1.73;;
45676;SDS011;31390;51.186;6.830;2022-12-29T10:03:59;10.05;;;1.60;;
45676;SDS011;31390;51.186;6.830;2022-12-29T10:06:51;7.40;;;1.70;;
45676;SDS011;31390;51.186;6.830;2022-12-29T10:09:34;5.72;;;1.90;;
45676;SDS011;31390;51.186;6.830;2022-12-29T10:17:45;4.70;;;1.65;;
45676;SDS011;31390;51.186;6.830;2022-12-29T10:20:33;4.65;;;1.63;;
45676;SDS011;31390;51.186;6.830;2022-12-29T10:25:40;4.95;;;1.80;;
45676;SDS011;31390;51.186;6.830;2022-12-29T10:28:19;6.75;;;1.67;;
45676;SDS011;31390;51.186;6.830;2022-12-29T10:30:50;9.05;;;2.47;;
45676;SDS011;31390;51.186;6.830;2022-12-29T10:33:19;3.78;;;1.58;;
45676;SDS011;31390;51.186;6.830;2022-12-29T10:35:49;3.97;;;1.75;;
45676;SDS011;31390;51.186;6.830;2022-12-29T10:38:22;7.70;;;1.77;;
45676;SDS011;31390;51.186;6.830;2022-12-29T10:43:32;9.13;;;1.65;;
45676;SDS011;31390;51.186;6.830;2022-12-29T10:46:19;5.32;;;1.80;;
45676;SDS011;31390;51.186;6.830;2022-12-29T10:48:47;5.25;;;1.45;;
45676;SDS011;31390;51.186;6.830;2022-12-29T10:51:20;7.97;;;2.05;;
45676;SDS011;31390;51.186;6.830;2022-12-29T10:53:48;4.65;;;1.50;;
45676;SDS011;31390;51.186;6.830;2022-12-29T10:56:39;10.15;;;2.03;;
45676;SDS011;31390;51.186;6.830;2022-12-29T10:59:06;7.20;;;1.60;;
45676;SDS011;31390;51.186;6.830;2022-12-29T11:01:42;8.85;;;1.65;;
45676;SDS011;31390;51.186;6.830;2022-12-29T11:04:35;6.55;;;1.73;;
45676;SDS011;31390;51.186;6.830;2022-12-29T11:07:05;5.25;;;1.67;;
45676;SDS011;31390;51.186;6.830;2022-12-29T11:09:39;6.65;;;1.50;;
45676;SDS011;31390;51.186;6.830;2022-12-29T11:12:30;8.52;;;1.90;;
45676;SDS011;31390;51.186;6.830;2022-12-29T11:17:49;6.30;;;1.77;;
45676;SDS011;31390;51.186;6.830;2022-12-29T11:20:29;6.18;;;2.03;;
45676;SDS011;31390;51.186;6.830;2022-12-29T11:22:59;4.93;;;1.63;;
45676;SDS011;31390;51.186;6.830;2022-12-29T11:25:31;6.70;;;1.90;;
45676;SDS011;31390;51.186;6.830;2022-12-29T11:28:03;7.32;;;2.10;;
45676;SDS011;31390;51.186;6.830;2022-12-29T11:30:59;4.78;;;1.63;;
45676;SDS011;31390;51.186;6.830;2022-12-29T11:33:29;7.07;;;1.88;;
45676;SDS011;31390;51.186;6.830;2022-12-29T11:36:01;5.28;;;1.77;;
45676;SDS011;31390;51.186;6.830;2022-12-29T11:38:33;13.32;;;2.15;;
45676;SDS011;31390;51.186;6.830;2022-12-29T11:41:01;7.40;;;1.95;;
45676;SDS011;31390;51.186;6.830;2022-12-29T11:43:43;9.40;;;2.22;;
45676;SDS011;31390;51.186;6.830;2022-12-29T11:46:29;8.30;;;1.92;;
45676;SDS011;31390;51.186;6.830;2022-12-29T11:49:05;10.38;;;2.58;;
45676;SDS011;31390;51.186;6.830;2022-12-29T11:51:52;8.85;;;2.10;;
45676;SDS011;31390;51.186;6.830;2022-12-29T11:57:42;11.35;;;2.33;;
45676;SDS011;31390;51.186;6.830;2022-12-29T12:00:21;10.05;;;2.35;;
45676;SDS011;31390;51.186;6.830;2022-12-29T12:03:00;10.93;;;1.75;;
45676;SDS011;31390;51.186;6.830;2022-12-29T12:05:46;12.10;;;2.55;;
45676;SDS011;31390;51.186;6.830;2022-12-29T12:14:30;13.05;;;2.47;;
45676;SDS011;31390;51.186;6.830;2022-12-29T12:17:10;8.20;;;2.08;;
45676;SDS011;31390;51.186;6.830;2022-12-29T12:19:59;11.52;;;2.13;;
45676;SDS011;31390;51.186;6.830;2022-12-29T12:22:38;12.80;;;2.35;;
45676;SDS011;31390;51.186;6.830;2022-12-29T12:25:11;7.95;;;2.50;;
45676;SDS011;31390;51.186;6.830;2022-12-29T12:33:42;8.75;;;2.22;;
45676;SDS011;31390;51.186;6.830;2022-12-29T12:38:55;7.65;;;1.77;;
45676;SDS011;31390;51.186;6.830;2022-12-29T12:44:00;6.07;;;1.90;;
45676;SDS011;31390;51.186;6.830;2022-12-29T12:54:17;8.38;;;2.03;;
45676;SDS011;31390;51.186;6.830;2022-12-29T12:56:53;7.85;;;1.75;;
45676;SDS011;31390;51.186;6.830;2022-12-29T13:02:45;5.40;;;1.60;;
45676;SDS011;31390;51.186;6.830;2022-12-29T13:05:04;8.20;;;1.65;;
45676;SDS011;31390;51.186;6.830;2022-12-29T13:10:30;6.57;;;1.70;;
45676;SDS011;31390;51.186;6.830;2022-12-29T13:18:31;6.90;;;1.58;;
45676;SDS011;31390;51.186;6.830;2022-12-29T13:23:34;4.53;;;1.90;;
45676;SDS011;31390;51.186;6.830;2022-12-29T13:26:08;8.20;;;2.10;;
45676;SDS011;31390;51.186;6.830;2022-12-29T13:34:17;6.50;;;1.80;;
45676;SDS011;31390;51.186;6.830;2022-12-29T13:36:48;7.90;;;2.05;;
45676;SDS011;31390;51.186;6.830;2022-12-29T13:39:34;9.57;;;1.80;;
45676;SDS011;31390;51.186;6.830;2022-12-29T13:42:04;8.35;;;2.05;;
45676;SDS011;31390;51.186;6.830;2022-12-29T13:44:34;7.03;;;2.17;;
45676;SDS011;31390;51.186;6.830;2022-12-29T13:47:36;6.93;;;1.95;;
45676;SDS011;31390;51.186;6.830;2022-12-29T13:49:56;4.93;;;1.67;;
45676;SDS011;31390;51.186;6.830;2022-12-29T13:53:10;8.85;;;1.75;;
45676;SDS011;31390;51.186;6.830;2022-12-29T13:55:24;6.93;;;1.95;;
45676;SDS011;31390;51.186;6.830;2022-12-29T14:03:28;4.45;;;1.70;;
45676;SDS011;31390;51.186;6.830;2022-12-29T14:06:44;3.03;;;1.05;;
45676;SDS011;31390;51.186;6.830;2022-12-29T14:09:06;6.28;;;1.60;;
45676;SDS011;31390;51.186;6.830;2022-12-29T14:12:00;6.65;;;1.88;;
45676;SDS011;31390;51.186;6.830;2022-12-29T14:14:28;5.38;;;2.50;;
45676;SDS011;31390;51.186;6.830;2022-12-29T14:17:09;5.15;;;1.50;;
45676;SDS011;31390;51.186;6.830;2022-12-29T14:19:41;2.95;;;1.00;;
45676;SDS011;31390;51.186;6.830;2022-12-29T14:22:09;3.22;;;1.20;;
45676;SDS011;31390;51.186;6.830;2022-12-29T14:24:41;2.97;;;1.08;;
45676;SDS011;31390;51.186;6.830;2022-12-29T14:34:59;7.03;;;2.10;;
45676;SDS011;31390;51.186;6.830;2022-12-29T14:37:33;3.55;;;1.20;;
45676;SDS011;31390;51.186;6.830;2022-12-29T14:40:23;4.90;;;1.42;;
45676;SDS011;31390;51.186;6.830;2022-12-29T14:42:52;4.78;;;1.00;;
45676;SDS011;31390;51.186;6.830;2022-12-29T14:47:46;6.00;;;1.63;;
45676;SDS011;31390;51.186;6.830;2022-12-29T14:50:15;5.47;;;1.55;;
45676;SDS011;31390;51.186;6.830;2022-12-29T14:52:53;6.18;;;1.63;;
45676;SDS011;31390;51.186;6.830;2022-12-29T14:55:31;7.57;;;1.60;;
45676;SDS011;31390;51.186;6.830;2022-12-29T14:58:03;5.80;;;1.58;;
45676;SDS011;31390;51.186;6.830;2022-12-29T15:00:39;8.93;;;1.95;;
45676;SDS011;31390;51.186;6.830;2022-12-29T15:05:37;4.47;;;1.40;;
45676;SDS011;31390;51.186;6.830;2022-12-29T15:08:07;6.68;;;1.80;;
45676;SDS011;31390;51.186;6.830;2022-12-29T15:10:39;5.93;;;1.73;;
45676;SDS011;31390;51.186;6.830;2022-12-29T15:13:13;5.47;;;1.77;;
45676;SDS011;31390;51.186;6.830;2022-12-29T15:15:41;5.18;;;1.73;;
45676;SDS011;31390;51.186;6.830;2022-12-29T15:20:46;2.97;;;1.40;;
45676;SDS011;31390;51.186;6.830;2022-12-29T15:23:16;4.75;;;1.40;;
45676;SDS011;31390;51.186;6.830;2022-12-29T15:25:53;5.63;;;1.50;;
45676;SDS011;31390;51.186;6.830;2022-12-29T15:28:21;4.40;;;1.48;;
45676;SDS011;31390;51.186;6.830;2022-12-29T15:30:55;4.40;;;1.30;;
45676;SDS011;31390;51.186;6.830;2022-12-29T15:33:23;5.57;;;2.20;;
45676;SDS011;31390;51.186;6.830;2022-12-29T15:35:50;5.50;;;1.70;;
45676;SDS011;31390;51.186;6.830;2022-12-29T15:38:22;4.40;;;1.80;;
45676;SDS011;31390;51.186;6.830;2022-12-29T15:46:18;5.10;;;1.63;;
45676;SDS011;31390;51.186;6.830;2022-12-29T15:48:45;4.90;;;1.58;;
45676;SDS011;31390;51.186;6.830;2022-12-29T15:53:57;4.43;;;1.60;;
45676;SDS011;31390;51.186;6.830;2022-12-29T15:56:24;4.53;;;1.77;;
45676;SDS011;31390;51.186;6.830;2022-12-29T15:58:51;8.80;;;2.28;;
45676;SDS011;31390;51.186;6.830;2022-12-29T16:01:19;4.80;;;1.70;;
45676;SDS011;31390;51.186;6.830;2022-12-29T16:03:46;6.00;;;1.70;;
45676;SDS011;31390;51.186;6.830;2022-12-29T16:06:32;7.35;;;1.83;;
45676;SDS011;31390;51.186;6.830;2022-12-29T16:09:02;4.25;;;1.63;;
45676;SDS011;31390;51.186;6.830;2022-12-29T16:11:32;7.30;;;2.00;;
45676;SDS011;31390;51.186;6.830;2022-12-29T16:13:59;7.57;;;2.38;;
45676;SDS011;31390;51.186;6.830;2022-12-29T16:16:28;7.00;;;2.45;;
45676;SDS011;31390;51.186;6.830;2022-12-29T16:18:55;5.82;;;2.20;;
45676;SDS011;31390;51.186;6.830;2022-12-29T16:21:31;7.47;;;1.92;;
45676;SDS011;31390;51.186;6.830;2022-12-29T16:31:21;7.05;;;2.42;;
45676;SDS011;31390;51.186;6.830;2022-12-29T16:37:48;6.95;;;2.28;;
45676;SDS011;31390;51.186;6.830;2022-12-29T16:41:42;7.40;;;1.80;;
45676;SDS011;31390;51.186;6.830;2022-12-29T16:44:56;6.22;;;2.05;;
45676;SDS011;31390;51.186;6.830;2022-12-29T17:04:04;8.07;;;2.63;;
45676;SDS011;31390;51.186;6.830;2022-12-29T17:06:54;6.95;;;2.35;;
45676;SDS011;31390;51.186;6.830;2022-12-29T17:10:37;8.85;;;2.75;;
45676;SDS011;31390;51.186;6.830;2022-12-29T17:13:34;7.68;;;2.50;;
45676;SDS011;31390;51.186;6.830;2022-12-29T17:45:11;13.90;;;3.20;;
45676;SDS011;31390;51.186;6.830;2022-12-29T18:04:35;6.45;;;3.05;;
45676;SDS011;31390;51.186;6.830;2022-12-29T18:24:12;12.77;;;2.67;;
45676;SDS011;31390;51.186;6.830;2022-12-29T18:34:25;10.25;;;3.60;;
45676;SDS011;31390;51.186;6.830;2022-12-29T18:36:54;12.38;;;3.85;;
45676;SDS011;31390;51.186;6.830;2022-12-29T18:39:20;9.82;;;3.28;;
45676;SDS011;31390;51.186;6.830;2022-12-29T18:41:54;13.55;;;3.83;;
45676;SDS011;31390;51.186;6.830;2022-12-29T18:44:21;9.68;;;3.20;;
45676;SDS011;31390;51.186;6.830;2022-12-29T18:46:49;14.52;;;4.03;;
45676;SDS011;31390;51.186;6.830;2022-12-29T18:49:16;11.30;;;3.92;;
45676;SDS011;31390;51.186;6.830;2022-12-29T18:51:42;10.70;;;3.22;;
45676;SDS011;31390;51.186;6.830;2022-12-29T18:54:29;9.30;;;3.05;;
45676;SDS011;31390;51.186;6.830;2022-12-29T18:56:56;13.07;;;3.95;;
45676;SDS011;31390;51.186;6.830;2022-12-29T18:59:22;12.70;;;3.65;;
45676;SDS011;31390;51.186;6.830;2022-12-29T19:01:49;11.43;;;3.38;;
45676;SDS011;31390;51.186;6.830;2022-12-29T19:04:16;12.18;;;3.70;;
45676;SDS011;31390;51.186;6.830;2022-12-29T19:06:42;14.15;;;3.95;;
45676;SDS011;31390;51.186;6.830;2022-12-29T19:09:09;11.52;;;3.80;;
45676;SDS011;31390;51.186;6.830;2022-12-29T19:11:36;11.68;;;3.95;;
45676;SDS011;31390;51.186;6.830;2022-12-29T19:14:02;9.93;;;3.15;;
45676;SDS011;31390;51.186;6.830;2022-12-29T19:16:29;13.60;;;3.33;;